Terminal Aerodrome Forecast
Issued by NWS Knoxville/Tri Cities, TN

Home | Current Version | Previous Version | Text Only | Print | Product List | Glossary On
Versions: 1 2 3 4 5 6 7 8 9 10 11 12 13
000
FTUS44 KMRX 281130
TAFTYS
TAF
KTYS 281130Z 2812/2912 VRB02KT P6SM SKC
     FM281600 23010KT P6SM FEW100
     FM290100 23007KT P6SM BKN100
     FM290500 26005KT P6SM BKN070
     FM290900 30007KT P6SM BKN035=

USA.gov is the U.S. government's official web portal to all federal, state and local government web resources and services.